sensor_id;sensor_type;location;lat;lon;timestamp;P1;durP1;ratioP1;P2;durP2;ratioP2
36189;SDS011;22232;50.914;13.858;2024-01-15T00:02:08;18.25;;;7.60;;
36189;SDS011;22232;50.914;13.858;2024-01-15T00:04:39;17.85;;;7.05;;
36189;SDS011;22232;50.914;13.858;2024-01-15T00:07:08;17.08;;;7.63;;
36189;SDS011;22232;50.914;13.858;2024-01-15T00:09:36;13.93;;;6.57;;
36189;SDS011;22232;50.914;13.858;2024-01-15T00:12:04;14.20;;;6.78;;
36189;SDS011;22232;50.914;13.858;2024-01-15T00:14:32;15.05;;;6.40;;
36189;SDS011;22232;50.914;13.858;2024-01-15T00:17:00;16.77;;;7.25;;
36189;SDS011;22232;50.914;13.858;2024-01-15T00:19:27;13.02;;;6.97;;
36189;SDS011;22232;50.914;13.858;2024-01-15T00:21:55;16.40;;;6.68;;
36189;SDS011;22232;50.914;13.858;2024-01-15T00:24:24;17.83;;;7.28;;
36189;SDS011;22232;50.914;13.858;2024-01-15T00:26:52;16.50;;;7.53;;
36189;SDS011;22232;50.914;13.858;2024-01-15T00:29:21;18.48;;;8.13;;
36189;SDS011;22232;50.914;13.858;2024-01-15T00:31:49;15.60;;;7.65;;
36189;SDS011;22232;50.914;13.858;2024-01-15T00:34:16;20.23;;;7.93;;
36189;SDS011;22232;50.914;13.858;2024-01-15T00:36:44;14.30;;;7.47;;
36189;SDS011;22232;50.914;13.858;2024-01-15T00:39:12;16.27;;;7.50;;
36189;SDS011;22232;50.914;13.858;2024-01-15T00:41:39;16.90;;;7.68;;
36189;SDS011;22232;50.914;13.858;2024-01-15T00:44:07;22.45;;;7.57;;
36189;SDS011;22232;50.914;13.858;2024-01-15T00:46:42;21.52;;;8.75;;
36189;SDS011;22232;50.914;13.858;2024-01-15T00:49:13;18.38;;;8.23;;
36189;SDS011;22232;50.914;13.858;2024-01-15T00:51:41;13.90;;;7.57;;
36189;SDS011;22232;50.914;13.858;2024-01-15T00:54:09;18.17;;;7.72;;
36189;SDS011;22232;50.914;13.858;2024-01-15T00:56:37;18.70;;;8.07;;
36189;SDS011;22232;50.914;13.858;2024-01-15T00:59:05;20.05;;;8.48;;
36189;SDS011;22232;50.914;13.858;2024-01-15T01:01:33;18.27;;;8.32;;
36189;SDS011;22232;50.914;13.858;2024-01-15T01:04:00;20.98;;;8.73;;
36189;SDS011;22232;50.914;13.858;2024-01-15T01:06:28;21.20;;;9.00;;
36189;SDS011;22232;50.914;13.858;2024-01-15T01:09:00;22.55;;;8.93;;
36189;SDS011;22232;50.914;13.858;2024-01-15T01:11:27;23.25;;;9.95;;
36189;SDS011;22232;50.914;13.858;2024-01-15T01:13:55;21.75;;;9.48;;
36189;SDS011;22232;50.914;13.858;2024-01-15T01:16:23;20.30;;;9.02;;
36189;SDS011;22232;50.914;13.858;2024-01-15T01:18:51;24.83;;;9.07;;
36189;SDS011;22232;50.914;13.858;2024-01-15T01:21:19;24.90;;;10.20;;
36189;SDS011;22232;50.914;13.858;2024-01-15T01:23:47;25.48;;;10.10;;
36189;SDS011;22232;50.914;13.858;2024-01-15T01:26:15;19.27;;;9.07;;
36189;SDS011;22232;50.914;13.858;2024-01-15T01:28:44;22.70;;;9.63;;
36189;SDS011;22232;50.914;13.858;2024-01-15T01:31:11;24.00;;;9.45;;
36189;SDS011;22232;50.914;13.858;2024-01-15T01:33:39;21.83;;;8.90;;
36189;SDS011;22232;50.914;13.858;2024-01-15T01:36:08;20.75;;;9.05;;
36189;SDS011;22232;50.914;13.858;2024-01-15T01:38:37;24.08;;;9.65;;
36189;SDS011;22232;50.914;13.858;2024-01-15T01:41:05;20.05;;;9.15;;
36189;SDS011;22232;50.914;13.858;2024-01-15T01:43:33;20.63;;;9.30;;
36189;SDS011;22232;50.914;13.858;2024-01-15T01:46:01;18.38;;;8.77;;
36189;SDS011;22232;50.914;13.858;2024-01-15T01:48:30;19.92;;;8.82;;
36189;SDS011;22232;50.914;13.858;2024-01-15T01:51:00;21.90;;;9.00;;
36189;SDS011;22232;50.914;13.858;2024-01-15T01:53:32;20.15;;;9.23;;
36189;SDS011;22232;50.914;13.858;2024-01-15T01:56:02;20.45;;;8.68;;
36189;SDS011;22232;50.914;13.858;2024-01-15T01:58:30;19.60;;;8.63;;
36189;SDS011;22232;50.914;13.858;2024-01-15T02:00:59;21.73;;;8.55;;
36189;SDS011;22232;50.914;13.858;2024-01-15T02:03:27;18.00;;;7.90;;
36189;SDS011;22232;50.914;13.858;2024-01-15T02:05:56;23.35;;;9.13;;
36189;SDS011;22232;50.914;13.858;2024-01-15T02:08:24;20.50;;;9.25;;
36189;SDS011;22232;50.914;13.858;2024-01-15T02:10:52;19.23;;;8.45;;
36189;SDS011;22232;50.914;13.858;2024-01-15T02:13:20;21.67;;;8.52;;
36189;SDS011;22232;50.914;13.858;2024-01-15T02:15:48;18.17;;;8.35;;
36189;SDS011;22232;50.914;13.858;2024-01-15T02:18:16;19.75;;;8.80;;
36189;SDS011;22232;50.914;13.858;2024-01-15T02:20:44;27.65;;;11.65;;
36189;SDS011;22232;50.914;13.858;2024-01-15T02:23:12;20.20;;;9.10;;
36189;SDS011;22232;50.914;13.858;2024-01-15T02:25:45;18.45;;;8.32;;
36189;SDS011;22232;50.914;13.858;2024-01-15T02:28:15;20.30;;;9.03;;
36189;SDS011;22232;50.914;13.858;2024-01-15T02:30:44;22.27;;;9.07;;
36189;SDS011;22232;50.914;13.858;2024-01-15T02:33:12;21.88;;;9.38;;
36189;SDS011;22232;50.914;13.858;2024-01-15T02:35:41;23.92;;;9.18;;
36189;SDS011;22232;50.914;13.858;2024-01-15T02:38:08;21.90;;;8.95;;
36189;SDS011;22232;50.914;13.858;2024-01-15T02:40:36;21.08;;;9.10;;
36189;SDS011;22232;50.914;13.858;2024-01-15T02:43:04;22.05;;;9.32;;
36189;SDS011;22232;50.914;13.858;2024-01-15T02:45:31;21.80;;;9.30;;
36189;SDS011;22232;50.914;13.858;2024-01-15T02:47:59;23.83;;;9.60;;
36189;SDS011;22232;50.914;13.858;2024-01-15T02:50:27;21.50;;;9.48;;
36189;SDS011;22232;50.914;13.858;2024-01-15T02:52:54;26.42;;;10.43;;
36189;SDS011;22232;50.914;13.858;2024-01-15T02:55:22;23.90;;;9.25;;
36189;SDS011;22232;50.914;13.858;2024-01-15T02:57:49;22.33;;;9.77;;
36189;SDS011;22232;50.914;13.858;2024-01-15T03:00:17;28.40;;;10.93;;
36189;SDS011;22232;50.914;13.858;2024-01-15T03:02:45;21.08;;;9.07;;
36189;SDS011;22232;50.914;13.858;2024-01-15T03:05:15;23.85;;;9.90;;
36189;SDS011;22232;50.914;13.858;2024-01-15T03:07:43;22.52;;;9.43;;
36189;SDS011;22232;50.914;13.858;2024-01-15T03:10:10;26.48;;;11.07;;
36189;SDS011;22232;50.914;13.858;2024-01-15T03:12:38;21.92;;;9.52;;
36189;SDS011;22232;50.914;13.858;2024-01-15T03:15:06;22.13;;;9.65;;
36189;SDS011;22232;50.914;13.858;2024-01-15T03:17:34;22.85;;;10.50;;
36189;SDS011;22232;50.914;13.858;2024-01-15T03:20:01;27.85;;;13.82;;
36189;SDS011;22232;50.914;13.858;2024-01-15T03:22:30;22.70;;;10.52;;
36189;SDS011;22232;50.914;13.858;2024-01-15T03:24:58;25.90;;;10.23;;
36189;SDS011;22232;50.914;13.858;2024-01-15T03:27:25;25.63;;;10.00;;
36189;SDS011;22232;50.914;13.858;2024-01-15T03:29:53;24.75;;;9.43;;
36189;SDS011;22232;50.914;13.858;2024-01-15T03:32:21;22.52;;;9.63;;
36189;SDS011;22232;50.914;13.858;2024-01-15T03:34:49;25.15;;;10.88;;
36189;SDS011;22232;50.914;13.858;2024-01-15T03:37:16;25.15;;;10.93;;
36189;SDS011;22232;50.914;13.858;2024-01-15T03:39:44;21.48;;;9.30;;
36189;SDS011;22232;50.914;13.858;2024-01-15T03:42:12;27.45;;;10.65;;
36189;SDS011;22232;50.914;13.858;2024-01-15T03:44:41;27.33;;;10.93;;
36189;SDS011;22232;50.914;13.858;2024-01-15T03:47:09;25.45;;;10.52;;
36189;SDS011;22232;50.914;13.858;2024-01-15T03:49:36;25.63;;;11.23;;
36189;SDS011;22232;50.914;13.858;2024-01-15T03:52:04;31.48;;;14.52;;
36189;SDS011;22232;50.914;13.858;2024-01-15T03:54:32;56.25;;;27.85;;
36189;SDS011;22232;50.914;13.858;2024-01-15T03:57:00;32.08;;;15.10;;
36189;SDS011;22232;50.914;13.858;2024-01-15T03:59:27;25.98;;;11.52;;
36189;SDS011;22232;50.914;13.858;2024-01-15T04:01:55;26.88;;;10.50;;
36189;SDS011;22232;50.914;13.858;2024-01-15T04:04:23;24.73;;;10.90;;
36189;SDS011;22232;50.914;13.858;2024-01-15T04:06:50;23.58;;;10.73;;
36189;SDS011;22232;50.914;13.858;2024-01-15T04:09:18;25.10;;;11.25;;
36189;SDS011;22232;50.914;13.858;2024-01-15T04:11:46;26.80;;;11.55;;
36189;SDS011;22232;50.914;13.858;2024-01-15T04:14:13;26.38;;;10.98;;
36189;SDS011;22232;50.914;13.858;2024-01-15T04:16:41;25.58;;;10.55;;
36189;SDS011;22232;50.914;13.858;2024-01-15T04:19:09;28.63;;;12.48;;
36189;SDS011;22232;50.914;13.858;2024-01-15T04:21:36;23.70;;;10.70;;
36189;SDS011;22232;50.914;13.858;2024-01-15T04:24:04;27.75;;;10.73;;
36189;SDS011;22232;50.914;13.858;2024-01-15T04:26:32;26.27;;;11.05;;
36189;SDS011;22232;50.914;13.858;2024-01-15T04:29:00;26.42;;;11.18;;
36189;SDS011;22232;50.914;13.858;2024-01-15T04:31:27;35.90;;;16.02;;
36189;SDS011;22232;50.914;13.858;2024-01-15T04:33:55;28.25;;;13.40;;
36189;SDS011;22232;50.914;13.858;2024-01-15T04:36:23;27.42;;;15.05;;
36189;SDS011;22232;50.914;13.858;2024-01-15T04:38:51;27.65;;;13.07;;
36189;SDS011;22232;50.914;13.858;2024-01-15T04:41:19;27.42;;;10.95;;
36189;SDS011;22232;50.914;13.858;2024-01-15T04:43:46;25.25;;;11.40;;
36189;SDS011;22232;50.914;13.858;2024-01-15T04:46:14;29.00;;;11.68;;
36189;SDS011;22232;50.914;13.858;2024-01-15T04:48:42;25.58;;;11.30;;
36189;SDS011;22232;50.914;13.858;2024-01-15T04:51:10;26.77;;;10.70;;
36189;SDS011;22232;50.914;13.858;2024-01-15T04:53:38;26.60;;;10.80;;
36189;SDS011;22232;50.914;13.858;2024-01-15T04:56:05;28.10;;;11.50;;
36189;SDS011;22232;50.914;13.858;2024-01-15T04:58:33;25.80;;;10.32;;
36189;SDS011;22232;50.914;13.858;2024-01-15T05:01:01;32.33;;;12.30;;
36189;SDS011;22232;50.914;13.858;2024-01-15T05:03:29;29.85;;;11.40;;
36189;SDS011;22232;50.914;13.858;2024-01-15T05:05:57;31.33;;;11.43;;
36189;SDS011;22232;50.914;13.858;2024-01-15T05:08:26;27.52;;;10.90;;
36189;SDS011;22232;50.914;13.858;2024-01-15T05:10:54;26.40;;;11.00;;
36189;SDS011;22232;50.914;13.858;2024-01-15T05:13:21;32.25;;;11.48;;
36189;SDS011;22232;50.914;13.858;2024-01-15T05:15:49;32.75;;;11.98;;
36189;SDS011;22232;50.914;13.858;2024-01-15T05:18:17;28.20;;;11.13;;
36189;SDS011;22232;50.914;13.858;2024-01-15T05:20:45;28.90;;;12.00;;
36189;SDS011;22232;50.914;13.858;2024-01-15T05:23:13;27.77;;;10.68;;
36189;SDS011;22232;50.914;13.858;2024-01-15T05:25:40;28.02;;;11.57;;
36189;SDS011;22232;50.914;13.858;2024-01-15T05:28:08;28.83;;;10.73;;
36189;SDS011;22232;50.914;13.858;2024-01-15T05:30:36;25.60;;;10.52;;
36189;SDS011;22232;50.914;13.858;2024-01-15T05:33:03;30.27;;;11.48;;
36189;SDS011;22232;50.914;13.858;2024-01-15T05:35:31;26.55;;;10.82;;
36189;SDS011;22232;50.914;13.858;2024-01-15T05:37:59;32.63;;;12.18;;
36189;SDS011;22232;50.914;13.858;2024-01-15T05:40:27;30.33;;;12.20;;
36189;SDS011;22232;50.914;13.858;2024-01-15T05:42:55;26.27;;;10.18;;
36189;SDS011;22232;50.914;13.858;2024-01-15T05:45:22;25.95;;;10.57;;
36189;SDS011;22232;50.914;13.858;2024-01-15T05:47:50;30.50;;;11.20;;
36189;SDS011;22232;50.914;13.858;2024-01-15T05:50:18;27.02;;;10.77;;
36189;SDS011;22232;50.914;13.858;2024-01-15T05:52:46;26.65;;;10.77;;
36189;SDS011;22232;50.914;13.858;2024-01-15T05:55:13;29.63;;;10.90;;
36189;SDS011;22232;50.914;13.858;2024-01-15T05:57:41;25.58;;;11.02;;
36189;SDS011;22232;50.914;13.858;2024-01-15T06:00:09;27.30;;;10.00;;
36189;SDS011;22232;50.914;13.858;2024-01-15T06:02:37;28.85;;;10.82;;
36189;SDS011;22232;50.914;13.858;2024-01-15T06:05:06;23.70;;;10.02;;
36189;SDS011;22232;50.914;13.858;2024-01-15T06:07:34;26.08;;;10.65;;
36189;SDS011;22232;50.914;13.858;2024-01-15T06:10:03;29.40;;;10.90;;
36189;SDS011;22232;50.914;13.858;2024-01-15T06:12:34;24.63;;;10.77;;
36189;SDS011;22232;50.914;13.858;2024-01-15T06:15:01;27.33;;;9.93;;
36189;SDS011;22232;50.914;13.858;2024-01-15T06:17:29;28.05;;;10.45;;
36189;SDS011;22232;50.914;13.858;2024-01-15T06:19:58;28.40;;;10.20;;
36189;SDS011;22232;50.914;13.858;2024-01-15T06:22:26;26.05;;;9.68;;
36189;SDS011;22232;50.914;13.858;2024-01-15T06:24:54;26.50;;;10.65;;
36189;SDS011;22232;50.914;13.858;2024-01-15T06:27:22;22.52;;;10.40;;
36189;SDS011;22232;50.914;13.858;2024-01-15T06:29:50;24.13;;;10.77;;
36189;SDS011;22232;50.914;13.858;2024-01-15T06:32:18;27.13;;;10.77;;
36189;SDS011;22232;50.914;13.858;2024-01-15T06:34:45;25.95;;;10.02;;
36189;SDS011;22232;50.914;13.858;2024-01-15T06:37:13;23.23;;;9.45;;
36189;SDS011;22232;50.914;13.858;2024-01-15T06:39:41;22.40;;;10.02;;
36189;SDS011;22232;50.914;13.858;2024-01-15T06:42:09;26.65;;;9.18;;
36189;SDS011;22232;50.914;13.858;2024-01-15T06:44:36;26.58;;;9.85;;
36189;SDS011;22232;50.914;13.858;2024-01-15T06:47:05;22.15;;;8.52;;
36189;SDS011;22232;50.914;13.858;2024-01-15T06:49:32;25.40;;;9.68;;
36189;SDS011;22232;50.914;13.858;2024-01-15T06:52:00;26.65;;;10.18;;
36189;SDS011;22232;50.914;13.858;2024-01-15T06:54:28;20.65;;;9.13;;
36189;SDS011;22232;50.914;13.858;2024-01-15T06:56:56;22.67;;;8.70;;
36189;SDS011;22232;50.914;13.858;2024-01-15T06:59:24;21.63;;;8.57;;
36189;SDS011;22232;50.914;13.858;2024-01-15T07:01:52;22.75;;;9.77;;
36189;SDS011;22232;50.914;13.858;2024-01-15T07:04:20;20.08;;;8.52;;
36189;SDS011;22232;50.914;13.858;2024-01-15T07:06:48;22.30;;;9.07;;
36189;SDS011;22232;50.914;13.858;2024-01-15T07:09:15;21.83;;;8.88;;
36189;SDS011;22232;50.914;13.858;2024-01-15T07:11:44;21.08;;;8.73;;
36189;SDS011;22232;50.914;13.858;2024-01-15T07:14:13;21.73;;;9.25;;
36189;SDS011;22232;50.914;13.858;2024-01-15T07:16:41;18.80;;;7.50;;
36189;SDS011;22232;50.914;13.858;2024-01-15T07:19:14;20.40;;;8.52;;
36189;SDS011;22232;50.914;13.858;2024-01-15T07:21:41;20.13;;;8.68;;
36189;SDS011;22232;50.914;13.858;2024-01-15T07:24:10;21.05;;;7.88;;
36189;SDS011;22232;50.914;13.858;2024-01-15T07:26:38;20.23;;;8.50;;
36189;SDS011;22232;50.914;13.858;2024-01-15T07:29:06;18.27;;;7.07;;
36189;SDS011;22232;50.914;13.858;2024-01-15T07:31:34;21.70;;;8.18;;
36189;SDS011;22232;50.914;13.858;2024-01-15T07:34:02;19.38;;;7.95;;
36189;SDS011;22232;50.914;13.858;2024-01-15T07:36:30;21.02;;;8.25;;
36189;SDS011;22232;50.914;13.858;2024-01-15T07:38:57;16.58;;;6.93;;
36189;SDS011;22232;50.914;13.858;2024-01-15T07:41:25;21.00;;;8.07;;
36189;SDS011;22232;50.914;13.858;2024-01-15T07:43:53;19.42;;;7.82;;
36189;SDS011;22232;50.914;13.858;2024-01-15T07:46:20;22.52;;;8.32;;
36189;SDS011;22232;50.914;13.858;2024-01-15T07:48:48;21.55;;;7.85;;
36189;SDS011;22232;50.914;13.858;2024-01-15T07:51:19;17.58;;;7.68;;
36189;SDS011;22232;50.914;13.858;2024-01-15T07:53:46;20.15;;;7.38;;
36189;SDS011;22232;50.914;13.858;2024-01-15T07:56:14;24.83;;;8.40;;
36189;SDS011;22232;50.914;13.858;2024-01-15T07:58:42;19.85;;;8.07;;
36189;SDS011;22232;50.914;13.858;2024-01-15T08:01:09;15.80;;;7.22;;
36189;SDS011;22232;50.914;13.858;2024-01-15T08:03:37;18.83;;;7.85;;
36189;SDS011;22232;50.914;13.858;2024-01-15T08:06:05;20.25;;;8.27;;
36189;SDS011;22232;50.914;13.858;2024-01-15T08:08:33;16.55;;;7.00;;
36189;SDS011;22232;50.914;13.858;2024-01-15T08:11:01;17.95;;;7.75;;
36189;SDS011;22232;50.914;13.858;2024-01-15T08:13:29;18.55;;;9.00;;
36189;SDS011;22232;50.914;13.858;2024-01-15T08:15:58;16.65;;;7.53;;
36189;SDS011;22232;50.914;13.858;2024-01-15T08:18:26;18.58;;;7.40;;
36189;SDS011;22232;50.914;13.858;2024-01-15T08:20:54;18.10;;;7.15;;
36189;SDS011;22232;50.914;13.858;2024-01-15T08:23:21;22.15;;;6.95;;
36189;SDS011;22232;50.914;13.858;2024-01-15T08:25:49;18.77;;;7.35;;
36189;SDS011;22232;50.914;13.858;2024-01-15T08:28:18;14.80;;;6.85;;
36189;SDS011;22232;50.914;13.858;2024-01-15T08:30:45;18.35;;;6.97;;
36189;SDS011;22232;50.914;13.858;2024-01-15T08:33:14;22.45;;;8.40;;
36189;SDS011;22232;50.914;13.858;2024-01-15T08:35:48;21.33;;;8.48;;
36189;SDS011;22232;50.914;13.858;2024-01-15T08:38:16;21.30;;;8.52;;
36189;SDS011;22232;50.914;13.858;2024-01-15T08:40:44;16.60;;;7.07;;
36189;SDS011;22232;50.914;13.858;2024-01-15T08:43:11;14.98;;;6.93;;
36189;SDS011;22232;50.914;13.858;2024-01-15T08:45:39;16.17;;;7.07;;
36189;SDS011;22232;50.914;13.858;2024-01-15T08:48:07;16.70;;;6.78;;
36189;SDS011;22232;50.914;13.858;2024-01-15T08:50:35;19.42;;;6.13;;
36189;SDS011;22232;50.914;13.858;2024-01-15T08:53:03;15.68;;;7.38;;
36189;SDS011;22232;50.914;13.858;2024-01-15T08:55:31;15.45;;;6.25;;
36189;SDS011;22232;50.914;13.858;2024-01-15T08:58:00;17.20;;;7.25;;
36189;SDS011;22232;50.914;13.858;2024-01-15T09:00:27;15.40;;;6.53;;
36189;SDS011;22232;50.914;13.858;2024-01-15T09:02:56;14.15;;;6.43;;
36189;SDS011;22232;50.914;13.858;2024-01-15T09:05:24;13.65;;;5.57;;
36189;SDS011;22232;50.914;13.858;2024-01-15T09:07:52;16.05;;;5.82;;
36189;SDS011;22232;50.914;13.858;2024-01-15T09:10:19;12.48;;;6.05;;
36189;SDS011;22232;50.914;13.858;2024-01-15T09:12:47;13.45;;;6.18;;
36189;SDS011;22232;50.914;13.858;2024-01-15T09:15:16;11.05;;;5.47;;
36189;SDS011;22232;50.914;13.858;2024-01-15T09:17:44;12.07;;;5.50;;
36189;SDS011;22232;50.914;13.858;2024-01-15T09:20:13;15.50;;;5.28;;
36189;SDS011;22232;50.914;13.858;2024-01-15T09:22:41;11.82;;;5.47;;
36189;SDS011;22232;50.914;13.858;2024-01-15T09:25:09;14.80;;;5.53;;
36189;SDS011;22232;50.914;13.858;2024-01-15T09:27:37;17.27;;;6.07;;
36189;SDS011;22232;50.914;13.858;2024-01-15T09:30:05;16.55;;;5.95;;
36189;SDS011;22232;50.914;13.858;2024-01-15T09:32:34;12.25;;;5.35;;
36189;SDS011;22232;50.914;13.858;2024-01-15T09:35:02;12.93;;;5.30;;
36189;SDS011;22232;50.914;13.858;2024-01-15T09:37:30;11.38;;;5.25;;
36189;SDS011;22232;50.914;13.858;2024-01-15T09:40:13;12.15;;;5.25;;
36189;SDS011;22232;50.914;13.858;2024-01-15T09:42:44;14.00;;;5.35;;
36189;SDS011;22232;50.914;13.858;2024-01-15T09:45:13;17.95;;;5.93;;
36189;SDS011;22232;50.914;13.858;2024-01-15T09:47:42;9.57;;;4.85;;
36189;SDS011;22232;50.914;13.858;2024-01-15T09:50:13;11.32;;;5.15;;
36189;SDS011;22232;50.914;13.858;2024-01-15T09:52:43;13.60;;;5.00;;
36189;SDS011;22232;50.914;13.858;2024-01-15T09:55:12;15.32;;;5.20;;
36189;SDS011;22232;50.914;13.858;2024-01-15T09:57:43;11.40;;;5.20;;
36189;SDS011;22232;50.914;13.858;2024-01-15T10:00:14;10.55;;;4.60;;
36189;SDS011;22232;50.914;13.858;2024-01-15T10:02:45;9.18;;;4.60;;
36189;SDS011;22232;50.914;13.858;2024-01-15T10:05:13;13.20;;;4.95;;
36189;SDS011;22232;50.914;13.858;2024-01-15T10:07:41;11.13;;;4.80;;
36189;SDS011;22232;50.914;13.858;2024-01-15T10:10:10;12.27;;;4.93;;
36189;SDS011;22232;50.914;13.858;2024-01-15T10:12:39;11.02;;;4.70;;
36189;SDS011;22232;50.914;13.858;2024-01-15T10:15:08;14.25;;;4.85;;
36189;SDS011;22232;50.914;13.858;2024-01-15T10:17:38;12.23;;;5.07;;
36189;SDS011;22232;50.914;13.858;2024-01-15T10:20:10;12.50;;;4.50;;
36189;SDS011;22232;50.914;13.858;2024-01-15T10:22:40;11.60;;;4.55;;
36189;SDS011;22232;50.914;13.858;2024-01-15T10:25:10;12.73;;;4.47;;
36189;SDS011;22232;50.914;13.858;2024-01-15T10:27:38;13.65;;;4.90;;
36189;SDS011;22232;50.914;13.858;2024-01-15T10:30:08;12.55;;;5.00;;
36189;SDS011;22232;50.914;13.858;2024-01-15T10:32:37;11.35;;;4.65;;
36189;SDS011;22232;50.914;13.858;2024-01-15T10:35:06;12.48;;;4.60;;
36189;SDS011;22232;50.914;13.858;2024-01-15T10:37:34;13.15;;;5.20;;
36189;SDS011;22232;50.914;13.858;2024-01-15T10:40:02;12.50;;;4.65;;
36189;SDS011;22232;50.914;13.858;2024-01-15T10:42:32;12.15;;;4.88;;
36189;SDS011;22232;50.914;13.858;2024-01-15T10:45:00;14.10;;;5.15;;
36189;SDS011;22232;50.914;13.858;2024-01-15T10:47:28;12.70;;;5.07;;
36189;SDS011;22232;50.914;13.858;2024-01-15T10:49:58;14.02;;;5.82;;
36189;SDS011;22232;50.914;13.858;2024-01-15T10:52:27;13.68;;;4.55;;
36189;SDS011;22232;50.914;13.858;2024-01-15T10:54:57;10.65;;;5.10;;
36189;SDS011;22232;50.914;13.858;2024-01-15T10:57:33;9.95;;;4.60;;
36189;SDS011;22232;50.914;13.858;2024-01-15T11:00:02;10.63;;;4.70;;
36189;SDS011;22232;50.914;13.858;2024-01-15T11:02:33;10.27;;;4.38;;
36189;SDS011;22232;50.914;13.858;2024-01-15T11:05:03;12.13;;;4.63;;
36189;SDS011;22232;50.914;13.858;2024-01-15T11:07:31;10.80;;;4.32;;
36189;SDS011;22232;50.914;13.858;2024-01-15T11:10:02;11.63;;;5.25;;
36189;SDS011;22232;50.914;13.858;2024-01-15T11:12:31;12.98;;;5.10;;
36189;SDS011;22232;50.914;13.858;2024-01-15T11:15:03;9.02;;;4.20;;
36189;SDS011;22232;50.914;13.858;2024-01-15T11:18:18;14.48;;;4.45;;
36189;SDS011;22232;50.914;13.858;2024-01-15T11:20:31;10.57;;;4.40;;
36189;SDS011;22232;50.914;13.858;2024-01-15T11:22:59;9.25;;;4.57;;
36189;SDS011;22232;50.914;13.858;2024-01-15T11:25:34;10.57;;;4.03;;
36189;SDS011;22232;50.914;13.858;2024-01-15T11:28:04;9.90;;;4.50;;
36189;SDS011;22232;50.914;13.858;2024-01-15T11:30:32;14.23;;;4.82;;
36189;SDS011;22232;50.914;13.858;2024-01-15T11:33:03;11.23;;;4.60;;
36189;SDS011;22232;50.914;13.858;2024-01-15T11:35:50;12.23;;;5.32;;
36189;SDS011;22232;50.914;13.858;2024-01-15T11:38:27;12.00;;;4.70;;
36189;SDS011;22232;50.914;13.858;2024-01-15T11:40:57;9.52;;;4.60;;
36189;SDS011;22232;50.914;13.858;2024-01-15T11:43:27;10.82;;;5.03;;
36189;SDS011;22232;50.914;13.858;2024-01-15T11:45:58;13.63;;;4.70;;
36189;SDS011;22232;50.914;13.858;2024-01-15T11:48:31;14.20;;;4.50;;
36189;SDS011;22232;50.914;13.858;2024-01-15T11:51:10;11.43;;;4.40;;
36189;SDS011;22232;50.914;13.858;2024-01-15T11:53:43;12.57;;;4.82;;
36189;SDS011;22232;50.914;13.858;2024-01-15T11:56:16;12.32;;;4.50;;
36189;SDS011;22232;50.914;13.858;2024-01-15T11:58:44;9.70;;;4.45;;
36189;SDS011;22232;50.914;13.858;2024-01-15T12:01:12;7.25;;;4.13;;
36189;SDS011;22232;50.914;13.858;2024-01-15T12:03:40;16.92;;;5.43;;
36189;SDS011;22232;50.914;13.858;2024-01-15T12:06:08;9.93;;;4.40;;
36189;SDS011;22232;50.914;13.858;2024-01-15T12:08:37;11.25;;;4.25;;
36189;SDS011;22232;50.914;13.858;2024-01-15T12:11:06;13.85;;;4.63;;
36189;SDS011;22232;50.914;13.858;2024-01-15T12:13:38;12.25;;;4.72;;
36189;SDS011;22232;50.914;13.858;2024-01-15T12:16:06;10.93;;;4.25;;
36189;SDS011;22232;50.914;13.858;2024-01-15T12:18:34;12.15;;;4.32;;
36189;SDS011;22232;50.914;13.858;2024-01-15T12:21:03;14.07;;;5.35;;
36189;SDS011;22232;50.914;13.858;2024-01-15T12:23:31;11.55;;;4.93;;
36189;SDS011;22232;50.914;13.858;2024-01-15T12:26:00;16.63;;;4.70;;
36189;SDS011;22232;50.914;13.858;2024-01-15T12:28:28;11.43;;;4.50;;
36189;SDS011;22232;50.914;13.858;2024-01-15T12:30:56;12.50;;;5.20;;
36189;SDS011;22232;50.914;13.858;2024-01-15T12:33:27;11.95;;;5.22;;
36189;SDS011;22232;50.914;13.858;2024-01-15T12:35:55;11.60;;;4.60;;
36189;SDS011;22232;50.914;13.858;2024-01-15T12:38:23;13.30;;;4.82;;
36189;SDS011;22232;50.914;13.858;2024-01-15T12:40:51;11.93;;;5.55;;
36189;SDS011;22232;50.914;13.858;2024-01-15T12:43:18;11.25;;;4.82;;
36189;SDS011;22232;50.914;13.858;2024-01-15T12:45:47;12.98;;;5.28;;
36189;SDS011;22232;50.914;13.858;2024-01-15T12:48:15;14.05;;;5.40;;
36189;SDS011;22232;50.914;13.858;2024-01-15T12:50:46;13.93;;;5.95;;
36189;SDS011;22232;50.914;13.858;2024-01-15T12:53:15;10.75;;;5.13;;
36189;SDS011;22232;50.914;13.858;2024-01-15T12:55:43;12.63;;;5.38;;
36189;SDS011;22232;50.914;13.858;2024-01-15T12:58:11;10.60;;;5.38;;
36189;SDS011;22232;50.914;13.858;2024-01-15T13:00:39;11.95;;;5.60;;
36189;SDS011;22232;50.914;13.858;2024-01-15T13:03:07;12.82;;;6.03;;
36189;SDS011;22232;50.914;13.858;2024-01-15T13:05:35;16.00;;;6.30;;
36189;SDS011;22232;50.914;13.858;2024-01-15T13:08:04;14.00;;;5.78;;
36189;SDS011;22232;50.914;13.858;2024-01-15T13:10:32;17.23;;;7.47;;
36189;SDS011;22232;50.914;13.858;2024-01-15T13:13:00;15.02;;;6.65;;
36189;SDS011;22232;50.914;13.858;2024-01-15T13:15:28;15.13;;;6.60;;
36189;SDS011;22232;50.914;13.858;2024-01-15T13:17:55;13.90;;;6.32;;
36189;SDS011;22232;50.914;13.858;2024-01-15T13:20:23;14.40;;;6.05;;
36189;SDS011;22232;50.914;13.858;2024-01-15T13:22:51;15.75;;;6.28;;
36189;SDS011;22232;50.914;13.858;2024-01-15T13:25:19;16.08;;;7.18;;
36189;SDS011;22232;50.914;13.858;2024-01-15T13:27:48;14.40;;;6.55;;
36189;SDS011;22232;50.914;13.858;2024-01-15T13:30:16;14.48;;;6.53;;
36189;SDS011;22232;50.914;13.858;2024-01-15T13:32:45;16.73;;;7.53;;
36189;SDS011;22232;50.914;13.858;2024-01-15T13:35:13;15.70;;;7.00;;
36189;SDS011;22232;50.914;13.858;2024-01-15T13:37:41;17.65;;;7.03;;
36189;SDS011;22232;50.914;13.858;2024-01-15T13:40:09;19.30;;;7.15;;
36189;SDS011;22232;50.914;13.858;2024-01-15T13:42:37;15.07;;;6.75;;
36189;SDS011;22232;50.914;13.858;2024-01-15T13:45:08;15.65;;;6.85;;
36189;SDS011;22232;50.914;13.858;2024-01-15T13:47:36;17.65;;;6.93;;
36189;SDS011;22232;50.914;13.858;2024-01-15T13:50:05;17.00;;;7.35;;
36189;SDS011;22232;50.914;13.858;2024-01-15T13:52:34;17.42;;;8.15;;
36189;SDS011;22232;50.914;13.858;2024-01-15T13:55:02;15.88;;;6.88;;
36189;SDS011;22232;50.914;13.858;2024-01-15T13:57:30;14.23;;;6.38;;
36189;SDS011;22232;50.914;13.858;2024-01-15T13:59:58;22.25;;;8.60;;
36189;SDS011;22232;50.914;13.858;2024-01-15T14:02:25;17.13;;;6.75;;
36189;SDS011;22232;50.914;13.858;2024-01-15T14:04:54;21.83;;;8.38;;
36189;SDS011;22232;50.914;13.858;2024-01-15T14:07:21;29.33;;;11.13;;
36189;SDS011;22232;50.914;13.858;2024-01-15T14:09:50;17.25;;;7.20;;
36189;SDS011;22232;50.914;13.858;2024-01-15T14:12:18;12.80;;;5.93;;
36189;SDS011;22232;50.914;13.858;2024-01-15T14:14:46;17.23;;;6.80;;
36189;SDS011;22232;50.914;13.858;2024-01-15T14:17:15;13.13;;;6.45;;
36189;SDS011;22232;50.914;13.858;2024-01-15T14:19:42;11.10;;;5.90;;
36189;SDS011;22232;50.914;13.858;2024-01-15T14:22:10;16.05;;;6.03;;
36189;SDS011;22232;50.914;13.858;2024-01-15T14:24:38;15.10;;;6.15;;
36189;SDS011;22232;50.914;13.858;2024-01-15T14:27:06;13.68;;;6.70;;